createdAt,value
2023-05-10T00:00:55.876Z,85.1382
2023-05-10T00:01:56.873Z,85.1380
2023-05-10T00:02:58.366Z,85.1410
2023-05-10T00:05:59.952Z,85.1472
2023-05-10T00:12:05.393Z,85.1789
2023-05-10T00:13:06.604Z,85.1833
2023-05-10T00:14:07.046Z,85.1958
2023-05-10T00:15:08.390Z,85.2036
2023-05-10T00:16:08.793Z,85.1995
2023-05-10T00:17:08.826Z,85.2056
2023-05-10T00:18:09.512Z,85.2069
2023-05-10T00:19:09.701Z,85.2167
2023-05-10T00:20:10.126Z,85.2220
2023-05-10T00:21:10.334Z,85.2278
2023-05-10T00:22:11.549Z,85.2334
2023-05-10T00:23:12.935Z,85.2398
2023-05-10T00:24:13.385Z,85.2450
2023-05-10T00:25:13.331Z,85.2552
2023-05-10T00:26:13.292Z,85.2625
2023-05-10T00:27:14.299Z,85.2728
2023-05-10T00:28:15.738Z,85.2766
2023-05-10T00:30:16.547Z,85.2883
2023-05-10T00:31:16.726Z,85.2983
2023-05-10T00:32:17.604Z,85.3091
2023-05-10T00:33:17.881Z,85.3174
2023-05-10T00:34:19.132Z,85.3261
2023-05-10T00:35:20.241Z,85.3312
2023-05-10T00:36:20.841Z,85.3384
2023-05-10T00:37:21.119Z,85.3425
2023-05-10T00:38:21.934Z,85.3471
2023-05-10T00:39:21.989Z,85.3517
2023-05-10T00:40:23.338Z,85.3670
2023-05-10T00:41:23.812Z,85.3776
2023-05-10T00:42:24.452Z,85.3930
2023-05-10T00:43:24.805Z,85.4079
2023-05-10T00:44:25.697Z,85.4236
2023-05-10T00:45:26.177Z,85.4342
2023-05-10T00:46:26.483Z,85.4461
2023-05-10T00:51:30.059Z,85.4558
2023-05-10T00:52:31.148Z,85.4577
2023-05-10T00:53:32.574Z,85.4619
2023-05-10T00:54:32.446Z,85.4661
2023-05-10T00:55:33.659Z,85.4653
2023-05-10T00:56:34.886Z,85.4648
2023-05-10T00:57:34.909Z,85.4663
2023-05-10T00:58:36.146Z,85.4693
2023-05-10T00:59:37.417Z,85.4778
2023-05-10T01:00:37.390Z,85.4864
2023-05-10T01:01:38.881Z,85.4892
2023-05-10T01:02:39.100Z,85.5071
2023-05-10T01:03:40.020Z,85.5200
2023-05-10T01:04:40.140Z,85.5217
2023-05-10T01:05:40.305Z,85.5243
2023-05-10T01:06:41.626Z,85.5266
2023-05-10T01:07:41.950Z,85.5326
2023-05-10T01:08:43.307Z,85.5440
2023-05-10T01:09:44.788Z,85.5597
2023-05-10T01:10:46.087Z,85.5674
2023-05-10T01:11:48.172Z,85.5769
2023-05-10T01:12:48.861Z,85.5846
2023-05-10T01:13:49.288Z,85.5989
2023-05-10T01:14:49.547Z,85.6074
2023-05-10T01:15:51.248Z,85.6154
2023-05-10T01:16:51.527Z,85.6226
2023-05-10T01:17:51.795Z,85.6256
2023-05-10T01:18:51.842Z,85.6287
2023-05-10T01:19:52.069Z,85.6366
2023-05-10T01:20:52.572Z,85.6476
2023-05-10T01:21:53.720Z,85.6548
2023-05-10T01:22:55.214Z,85.6677
2023-05-10T01:23:56.205Z,85.6783
2023-05-10T01:24:57.578Z,85.6695
2023-05-10T01:25:57.631Z,85.6625
2023-05-10T01:26:59.025Z,85.6642
2023-05-10T01:28:00.333Z,85.6646
2023-05-10T01:29:02.024Z,85.6662
2023-05-10T01:30:14.840Z,85.6752
2023-05-10T01:31:03.190Z,85.7053
2023-05-10T01:32:03.498Z,85.6851
2023-05-10T01:33:04.942Z,85.6850
2023-05-10T01:34:05.198Z,85.6899
2023-05-10T01:35:05.299Z,85.6926
2023-05-10T01:36:06.530Z,85.7065
2023-05-10T01:37:07.310Z,85.7061
2023-05-10T01:38:07.726Z,85.7107
2023-05-10T01:39:07.974Z,85.7151
2023-05-10T01:40:08.049Z,85.7193
2023-05-10T01:41:08.785Z,85.7207
2023-05-10T01:42:09.376Z,85.7199
2023-05-10T01:43:09.752Z,85.7184
2023-05-10T01:44:10.164Z,85.7248
2023-05-10T01:45:10.801Z,85.7285
2023-05-10T01:46:11.022Z,85.7342
2023-05-10T01:47:11.803Z,85.7380
2023-05-10T01:48:12.379Z,85.7395
2023-05-10T01:49:13.112Z,85.7430
2023-05-10T01:50:13.433Z,85.7456
2023-05-10T01:51:14.157Z,85.7540
2023-05-10T01:52:15.657Z,85.7664
2023-05-10T01:53:16.245Z,85.7783
2023-05-10T01:54:16.449Z,85.7898
2023-05-10T01:55:16.828Z,85.7926
2023-05-10T01:56:17.202Z,85.7896
2023-05-10T01:57:17.491Z,85.7956
2023-05-10T01:58:17.460Z,85.8045
2023-05-10T01:59:17.671Z,85.8084
2023-05-10T02:00:18.084Z,85.8121
2023-05-10T02:01:19.166Z,85.8089
2023-05-10T02:02:19.452Z,85.8065
2023-05-10T02:03:20.461Z,85.8034
2023-05-10T02:04:21.857Z,85.8015
2023-05-10T02:05:22.385Z,85.7995
2023-05-10T02:06:22.677Z,85.7980
2023-05-10T02:07:22.857Z,85.7939
2023-05-10T02:08:23.391Z,85.7953
2023-05-10T02:09:23.846Z,85.8042
2023-05-10T02:10:24.748Z,85.8126
2023-05-10T02:11:25.153Z,85.8095
2023-05-10T02:12:25.877Z,85.8126
2023-05-10T02:13:26.377Z,85.8206
2023-05-10T02:14:28.031Z,85.8208
2023-05-10T02:15:28.716Z,85.8201
2023-05-10T02:16:30.528Z,85.8195
2023-05-10T02:18:30.298Z,85.8328
2023-05-10T02:19:31.108Z,85.8356
2023-05-10T02:20:32.092Z,85.8344
2023-05-10T02:21:32.560Z,85.8408
2023-05-10T02:22:33.809Z,85.8460
2023-05-10T02:23:35.156Z,85.8478
2023-05-10T02:24:36.129Z,85.8490
2023-05-10T02:25:38.533Z,85.8522
2023-05-10T02:26:38.391Z,85.8545
2023-05-10T02:27:38.933Z,85.8589
2023-05-10T02:28:39.102Z,85.8608
2023-05-10T02:29:40.387Z,85.8657
2023-05-10T02:30:41.251Z,85.8633
2023-05-10T02:31:42.919Z,85.8669
2023-05-10T02:32:44.332Z,85.8790
2023-05-10T02:33:44.051Z,85.8882
2023-05-10T02:34:45.099Z,85.8907
2023-05-10T02:35:45.632Z,85.8942
2023-05-10T02:36:45.844Z,85.8966
2023-05-10T02:37:47.138Z,85.8978
2023-05-10T02:38:47.804Z,85.9027
2023-05-10T02:39:48.556Z,85.9062
2023-05-10T02:40:49.643Z,85.9105
2023-05-10T02:41:50.668Z,85.9147
2023-05-10T02:42:51.393Z,85.9140
2023-05-10T02:43:52.842Z,85.9134
2023-05-10T02:44:52.529Z,85.9194
2023-05-10T02:45:53.269Z,85.9210
2023-05-10T02:46:54.791Z,85.9272
2023-05-10T02:47:55.296Z,85.9340
2023-05-10T02:48:55.260Z,85.9377
2023-05-10T02:49:56.106Z,85.9391
2023-05-10T02:50:55.802Z,85.9352
2023-05-10T02:51:57.333Z,85.9344
2023-05-10T02:52:58.123Z,85.9403
2023-05-10T02:53:58.351Z,85.9387
2023-05-10T02:54:58.948Z,85.9453
2023-05-10T02:56:01.158Z,85.9482
2023-05-10T02:57:02.402Z,85.9548
2023-05-10T02:58:02.034Z,85.9563
2023-05-10T02:59:02.279Z,85.9553
2023-05-10T03:00:02.874Z,85.9510
2023-05-10T03:01:04.801Z,85.9558
2023-05-10T03:02:05.732Z,85.9623
2023-05-10T03:03:05.759Z,85.9612
2023-05-10T03:04:06.632Z,85.9619
2023-05-10T03:05:06.877Z,85.9600
2023-05-10T03:06:07.722Z,85.9632
2023-05-10T03:07:08.229Z,85.9624
2023-05-10T03:08:08.697Z,85.9615
2023-05-10T03:09:11.273Z,85.9612
2023-05-10T03:10:10.181Z,85.9688
2023-05-10T03:11:10.338Z,85.9711
2023-05-10T03:12:12.077Z,85.9733
2023-05-10T03:13:12.847Z,85.9779
2023-05-10T03:14:14.508Z,85.9792
2023-05-10T03:16:44.925Z,85.9977
2023-05-10T03:17:43.684Z,85.9893
2023-05-10T03:18:43.837Z,85.9790
2023-05-10T03:19:44.668Z,85.9684
2023-05-10T03:20:45.096Z,85.9605
2023-05-10T03:21:45.489Z,85.9569
2023-05-10T03:22:46.056Z,85.9543
2023-05-10T03:23:46.940Z,85.9449
2023-05-10T03:24:47.830Z,85.9401
2023-05-10T03:25:48.448Z,85.9399
2023-05-10T03:26:48.533Z,85.9406
2023-05-10T03:27:49.665Z,85.9388
2023-05-10T03:28:50.631Z,85.9357
2023-05-10T03:29:51.033Z,85.9317
2023-05-10T03:30:51.668Z,85.9412
2023-05-10T03:31:52.248Z,85.9441
2023-05-10T03:32:52.645Z,85.9389
2023-05-10T03:33:53.239Z,85.9408
2023-05-10T03:34:55.671Z,85.9461
2023-05-10T03:37:57.499Z,85.9618
2023-05-10T03:38:58.375Z,85.9732
2023-05-10T03:39:57.353Z,85.9764
2023-05-10T03:40:58.849Z,85.9745
2023-05-10T03:41:58.549Z,85.9776
2023-05-10T03:42:59.037Z,85.9793
2023-05-10T03:44:00.057Z,85.9857
2023-05-10T03:44:59.880Z,85.9937
2023-05-10T03:46:00.397Z,85.9962
2023-05-10T03:47:02.272Z,86.0102
2023-05-10T03:48:01.997Z,86.0233
2023-05-10T03:49:03.292Z,86.0217
2023-05-10T03:50:02.685Z,86.0235
2023-05-10T03:51:03.871Z,86.0184
2023-05-10T03:52:05.489Z,86.0229
2023-05-10T03:54:06.133Z,86.0227
2023-05-10T03:55:05.980Z,86.0299
2023-05-10T03:56:06.732Z,86.0323
2023-05-10T03:57:07.322Z,86.0389
2023-05-10T03:58:07.583Z,86.0479
2023-05-10T03:59:07.827Z,86.0544
2023-05-10T04:00:11.265Z,86.0614
2023-05-10T04:01:09.735Z,86.0792
2023-05-10T04:02:10.601Z,86.0800
2023-05-10T04:03:11.044Z,86.0911
2023-05-10T04:04:11.820Z,86.0971
2023-05-10T04:09:14.869Z,86.1099
2023-05-10T04:10:16.026Z,86.1080
2023-05-10T04:11:16.307Z,86.1028
2023-05-10T04:12:16.359Z,86.0969
2023-05-10T04:13:18.002Z,86.0928
2023-05-10T04:14:18.391Z,86.0945
2023-05-10T04:15:19.163Z,86.0850
2023-05-10T04:16:19.287Z,86.0891
2023-05-10T04:17:21.724Z,86.0846
2023-05-10T04:18:23.011Z,86.0789
2023-05-10T04:19:23.700Z,86.0747
2023-05-10T04:20:24.429Z,86.0714
2023-05-10T04:21:25.294Z,86.0721
2023-05-10T04:22:26.248Z,86.0732
2023-05-10T04:23:27.593Z,86.0728
2023-05-10T04:24:29.191Z,86.0749
2023-05-10T04:25:30.322Z,86.0762
2023-05-10T04:26:30.880Z,86.0764
2023-05-10T04:27:31.761Z,86.0880
2023-05-10T04:28:31.925Z,86.0859
2023-05-10T04:29:32.397Z,86.0848
2023-05-10T04:30:32.758Z,86.0827
2023-05-10T04:34:36.517Z,86.0885
2023-05-10T04:35:38.505Z,86.0838
2023-05-10T04:39:42.492Z,86.0760
2023-05-10T04:40:42.161Z,86.0764
2023-05-10T04:41:42.457Z,86.0796
2023-05-10T04:42:42.589Z,86.0820
2023-05-10T04:43:43.617Z,86.0800
2023-05-10T04:44:44.716Z,86.0781
2023-05-10T04:50:48.962Z,86.0755
2023-05-10T04:51:49.544Z,86.0766
2023-05-10T04:52:49.943Z,86.0773
2023-05-10T04:54:05.254Z,86.0801
2023-05-10T04:54:56.409Z,86.0916
2023-05-10T04:55:57.881Z,86.0758
2023-05-10T04:57:00.066Z,86.0729
2023-05-10T04:58:02.162Z,86.0736
2023-05-10T04:59:03.558Z,86.0824
2023-05-10T05:00:04.315Z,86.0851
2023-05-10T05:01:05.317Z,86.0897
2023-05-10T05:02:06.431Z,86.0946
2023-05-10T05:03:08.843Z,86.1019
2023-05-10T05:04:10.486Z,86.1054
2023-05-10T05:05:11.255Z,86.1026
2023-05-10T05:06:13.472Z,86.1066
2023-05-10T05:07:14.877Z,86.1153
2023-05-10T05:08:15.793Z,86.1156
2023-05-10T05:09:16.527Z,86.1198
2023-05-10T05:10:18.295Z,86.1243
2023-05-10T05:11:18.508Z,86.1240
2023-05-10T05:12:19.313Z,86.1201
2023-05-10T05:13:19.835Z,86.1183
2023-05-10T05:14:19.939Z,86.1193
2023-05-10T05:15:20.125Z,86.1094
2023-05-10T05:16:20.983Z,86.1033
2023-05-10T05:22:26.648Z,86.0757
2023-05-10T05:23:28.080Z,86.0619
2023-05-10T05:24:28.396Z,86.0515
2023-05-10T05:25:28.814Z,86.0452
2023-05-10T05:26:29.355Z,86.0342
2023-05-10T05:27:31.189Z,86.0201
2023-05-10T05:28:32.294Z,86.0100
2023-05-10T05:29:33.667Z,86.0014
2023-05-10T05:30:35.144Z,86.0012
2023-05-10T05:31:36.732Z,86.0056
2023-05-10T05:32:38.512Z,86.0045
2023-05-10T05:33:39.234Z,86.0011
2023-05-10T05:34:39.962Z,85.9994
2023-05-10T05:35:41.301Z,85.9957
2023-05-10T05:36:42.615Z,85.9938
2023-05-10T05:37:42.998Z,85.9907
2023-05-10T05:38:43.528Z,85.9814
2023-05-10T05:39:44.226Z,85.9680
2023-05-10T05:40:44.918Z,85.9659
2023-05-10T05:41:44.954Z,85.9628
2023-05-10T05:42:45.666Z,85.9656
2023-05-10T05:43:45.845Z,85.9546
2023-05-10T05:44:50.651Z,85.9427
2023-05-10T05:45:48.114Z,85.9526
2023-05-10T05:48:48.071Z,85.9439
2023-05-10T05:49:52.451Z,85.9395
2023-05-10T05:50:51.053Z,85.9422
2023-05-10T05:51:53.457Z,85.9270
2023-05-10T05:53:54.102Z,85.9184
2023-05-10T05:54:54.345Z,85.9243
2023-05-10T05:55:54.710Z,85.9170
2023-05-10T05:56:57.660Z,85.9106
2023-05-10T05:59:58.490Z,85.8881
2023-05-10T06:03:59.862Z,85.8601
2023-05-10T06:04:59.890Z,85.8534
2023-05-10T06:06:01.208Z,85.8340
2023-05-10T06:07:03.154Z,85.8150
2023-05-10T06:08:04.708Z,85.7885
2023-05-10T06:09:05.324Z,85.7713
2023-05-10T06:10:05.618Z,85.7625
2023-05-10T06:11:05.820Z,85.7513
2023-05-10T06:12:07.959Z,85.7382
2023-05-10T06:13:10.445Z,85.7218
2023-05-10T06:14:11.361Z,85.7042
2023-05-10T06:15:13.759Z,85.6860
2023-05-10T06:16:15.070Z,85.6699
2023-05-10T06:17:16.239Z,85.6528
2023-05-10T06:18:16.908Z,85.6329
2023-05-10T06:19:20.693Z,85.6127
2023-05-10T06:21:18.842Z,85.5771
2023-05-10T06:22:19.240Z,85.5543
2023-05-10T06:23:20.768Z,85.5324
2023-05-10T06:24:21.131Z,85.5065
2023-05-10T06:25:22.332Z,85.4764
2023-05-10T06:26:23.969Z,85.4503
2023-05-10T06:27:24.882Z,85.4320
2023-05-10T06:28:26.544Z,85.4245
2023-05-10T06:29:27.191Z,85.4116
2023-05-10T06:32:27.596Z,85.3540
2023-05-10T06:33:28.261Z,85.3282
2023-05-10T06:34:29.548Z,85.3049
2023-05-10T06:35:30.650Z,85.2924
2023-05-10T06:36:31.384Z,85.2805
2023-05-10T06:37:31.960Z,85.2666
2023-05-10T06:38:32.556Z,85.2571
2023-05-10T06:39:33.198Z,85.2466
2023-05-10T06:40:33.695Z,85.2464
2023-05-10T06:41:34.286Z,85.2336
2023-05-10T06:42:34.963Z,85.2297
2023-05-10T06:43:35.530Z,85.2202
2023-05-10T06:44:35.976Z,85.2126
2023-05-10T06:45:37.094Z,85.2081
2023-05-10T06:46:37.682Z,85.2012
2023-05-10T06:47:40.678Z,85.1943
2023-05-10T06:48:41.321Z,85.1893
2023-05-10T06:49:41.669Z,85.1739
2023-05-10T06:50:42.333Z,85.1602
2023-05-10T06:51:43.041Z,85.1466
2023-05-10T06:52:44.054Z,85.1273
2023-05-10T06:53:44.706Z,85.1125
2023-05-10T06:54:45.127Z,85.0982
2023-05-10T06:55:46.232Z,85.0741
2023-05-10T06:56:47.092Z,85.0521
2023-05-10T06:57:47.339Z,85.0452
2023-05-10T06:58:48.092Z,85.0107
2023-05-10T06:59:49.064Z,84.9793
2023-05-10T07:00:49.862Z,84.9568
2023-05-10T07:01:50.295Z,84.9233
2023-05-10T07:02:51.285Z,84.8959
2023-05-10T07:03:52.153Z,84.8649
2023-05-10T07:04:53.070Z,84.8405
2023-05-10T07:05:54.015Z,84.8170
2023-05-10T07:06:54.191Z,84.7957
2023-05-10T07:07:55.404Z,84.7656
2023-05-10T07:08:55.844Z,84.7347
2023-05-10T07:09:56.384Z,84.7109
2023-05-10T07:10:57.095Z,84.6867
2023-05-10T07:11:58.081Z,84.6586
2023-05-10T07:12:58.727Z,84.6158
2023-05-10T07:13:59.006Z,84.5729
2023-05-10T07:14:59.473Z,84.5260
2023-05-10T07:16:00.723Z,84.4809
2023-05-10T07:17:01.696Z,84.4457
2023-05-10T07:18:02.464Z,84.4230
2023-05-10T07:19:03.327Z,84.4058
2023-05-10T07:20:04.341Z,84.3826
2023-05-10T07:21:04.957Z,84.3615
2023-05-10T07:22:05.761Z,84.3364
2023-05-10T07:23:06.518Z,84.3075
2023-05-10T07:24:06.849Z,84.2753
2023-05-10T07:25:07.270Z,84.2421
2023-05-10T07:26:07.869Z,84.2024
2023-05-10T07:27:08.612Z,84.1647
2023-05-10T07:28:09.253Z,84.1275
2023-05-10T07:29:09.640Z,84.0770
2023-05-10T07:30:10.261Z,84.0271
2023-05-10T07:31:11.191Z,83.9862
2023-05-10T07:32:12.138Z,83.9419
2023-05-10T07:33:13.006Z,83.9103
2023-05-10T07:34:13.610Z,83.8839
2023-05-10T07:35:14.394Z,83.8690
2023-05-10T07:36:15.094Z,83.8559
2023-05-10T07:37:15.659Z,83.8441
2023-05-10T07:38:16.264Z,83.8399
2023-05-10T07:39:26.593Z,83.8435
2023-05-10T07:40:21.288Z,83.8545
2023-05-10T07:41:21.635Z,83.8354
2023-05-10T07:42:21.786Z,83.8324
2023-05-10T07:43:22.639Z,83.8283
2023-05-10T07:44:23.788Z,83.8240
2023-05-10T07:45:24.152Z,83.8284
2023-05-10T07:46:24.532Z,83.8293
2023-05-10T07:47:25.056Z,83.8245
2023-05-10T07:48:25.731Z,83.8154
2023-05-10T07:49:26.727Z,83.7783
2023-05-10T07:50:27.902Z,83.6950
2023-05-10T07:51:29.120Z,83.6632
2023-05-10T07:52:30.277Z,83.6027
2023-05-10T07:53:31.379Z,83.5782
2023-05-10T07:54:31.919Z,83.5729
2023-05-10T07:55:32.907Z,83.5693
2023-05-10T07:56:33.515Z,83.5592
2023-05-10T07:57:33.701Z,83.5437
2023-05-10T07:58:34.825Z,83.5322
2023-05-10T07:59:35.091Z,83.5053
2023-05-10T08:00:35.837Z,83.4523
2023-05-10T08:01:36.404Z,83.3897
2023-05-10T08:02:37.698Z,83.3421
2023-05-10T08:03:38.044Z,83.3017
2023-05-10T08:04:39.323Z,83.2593
2023-05-10T08:05:39.157Z,83.2197
2023-05-10T08:06:39.779Z,83.1868
2023-05-10T08:07:40.831Z,83.1470
2023-05-10T08:08:41.555Z,83.1112
2023-05-10T08:09:42.224Z,83.0515
2023-05-10T08:10:42.820Z,82.9493
2023-05-10T08:11:44.062Z,82.8757
2023-05-10T08:12:44.679Z,82.8240
2023-05-10T08:13:45.156Z,82.8018
2023-05-10T08:14:46.211Z,82.7785
2023-05-10T08:15:46.852Z,82.7532
2023-05-10T08:16:47.909Z,82.7238
2023-05-10T08:17:48.405Z,82.6971
2023-05-10T08:18:48.553Z,82.6650
2023-05-10T08:19:48.548Z,82.6249
2023-05-10T08:20:49.588Z,82.5783
2023-05-10T08:21:50.768Z,82.5356
2023-05-10T08:22:51.955Z,82.4959
2023-05-10T08:23:51.569Z,82.4534
2023-05-10T08:24:52.211Z,82.3956
2023-05-10T08:25:53.380Z,82.3323
2023-05-10T08:26:53.738Z,82.2593
2023-05-10T08:27:54.193Z,82.1795
2023-05-10T08:28:54.718Z,82.1286
2023-05-10T08:29:54.874Z,82.0981
2023-05-10T08:30:55.202Z,82.0437
2023-05-10T08:31:56.217Z,81.9889
2023-05-10T08:32:56.830Z,81.8914
2023-05-10T08:33:57.718Z,81.8387
2023-05-10T08:34:58.470Z,81.7645
2023-05-10T08:35:58.245Z,81.7232
2023-05-10T08:36:58.684Z,81.6771
2023-05-10T08:37:58.867Z,81.6352
2023-05-10T08:38:59.327Z,81.5875
2023-05-10T08:39:59.528Z,81.5350
2023-05-10T08:41:00.434Z,81.4821
2023-05-10T08:42:00.839Z,81.4270
2023-05-10T08:43:01.700Z,81.3799
2023-05-10T08:44:02.405Z,81.3452
2023-05-10T08:45:03.359Z,81.3296
2023-05-10T08:46:03.972Z,81.3141
2023-05-10T08:47:04.082Z,81.2973
2023-05-10T08:48:04.981Z,81.2637
2023-05-10T08:49:05.806Z,81.2287
2023-05-10T08:50:06.396Z,81.2119
2023-05-10T08:51:07.163Z,81.1702
2023-05-10T08:52:07.958Z,81.1043
2023-05-10T08:53:08.332Z,81.0490
2023-05-10T08:54:08.946Z,80.9936
2023-05-10T08:55:09.600Z,80.9630
2023-05-10T08:56:10.308Z,80.9376
2023-05-10T08:57:11.386Z,80.9033
2023-05-10T08:58:12.133Z,80.8518
2023-05-10T08:59:12.839Z,80.7759
2023-05-10T09:00:13.602Z,80.6837
2023-05-10T09:01:14.201Z,80.6319
2023-05-10T09:02:16.619Z,80.5866
2023-05-10T09:03:15.394Z,80.5582
2023-05-10T09:04:16.173Z,80.5454
2023-05-10T09:05:16.690Z,80.5203
2023-05-10T09:06:16.977Z,80.5024
2023-05-10T09:07:17.545Z,80.4782
2023-05-10T09:08:18.016Z,80.4600
2023-05-10T09:09:18.780Z,80.4323
2023-05-10T09:10:19.361Z,80.4107
2023-05-10T09:11:19.960Z,80.3965
2023-05-10T09:12:20.477Z,80.3628
2023-05-10T09:13:21.427Z,80.3158
2023-05-10T09:14:22.120Z,80.2507
2023-05-10T09:15:22.780Z,80.2079
2023-05-10T09:16:22.877Z,80.1907
2023-05-10T09:17:23.826Z,80.1877
2023-05-10T09:18:27.300Z,80.2070
2023-05-10T09:19:24.861Z,80.2291
2023-05-10T09:20:24.867Z,80.2372
2023-05-10T09:21:25.291Z,80.2681
2023-05-10T09:22:26.011Z,80.2661
2023-05-10T09:23:26.484Z,80.2651
2023-05-10T09:24:27.377Z,80.2328
2023-05-10T09:25:28.051Z,80.1991
2023-05-10T09:26:28.829Z,80.2117
2023-05-10T09:27:29.318Z,80.2199
2023-05-10T09:28:30.057Z,80.2254
2023-05-10T09:29:30.315Z,80.2094
2023-05-10T09:30:31.183Z,80.1748
2023-05-10T09:31:32.461Z,80.1409
2023-05-10T09:32:33.063Z,80.1098
2023-05-10T09:33:33.847Z,80.0728
2023-05-10T09:34:34.522Z,80.0413
2023-05-10T09:35:34.841Z,80.0076
2023-05-10T09:36:35.358Z,79.9792
2023-05-10T09:37:36.236Z,79.9493
2023-05-10T09:38:36.747Z,79.9335
2023-05-10T09:39:37.186Z,79.9185
2023-05-10T09:40:37.803Z,79.9380
2023-05-10T09:41:38.388Z,79.9692
2023-05-10T09:42:39.007Z,80.0132
2023-05-10T09:43:39.390Z,80.0791
2023-05-10T09:44:40.074Z,80.1331
2023-05-10T09:45:41.066Z,80.1695
2023-05-10T09:46:42.085Z,80.1973
2023-05-10T09:47:42.539Z,80.1971
2023-05-10T09:48:43.322Z,80.2232
2023-05-10T09:49:43.828Z,80.2413
2023-05-10T09:50:44.522Z,80.2597
2023-05-10T09:51:45.255Z,80.2846
2023-05-10T09:52:45.935Z,80.3057
2023-05-10T09:53:46.222Z,80.3302
2023-05-10T09:54:46.807Z,80.3501
2023-05-10T09:55:47.423Z,80.3515
2023-05-10T09:56:47.536Z,80.3482
2023-05-10T09:57:48.631Z,80.3383
2023-05-10T09:58:49.112Z,80.2998
2023-05-10T09:59:49.597Z,80.2423
2023-05-10T10:00:50.463Z,80.1768
2023-05-10T10:01:51.734Z,80.1096
2023-05-10T10:02:52.350Z,80.0303
2023-05-10T10:03:53.226Z,79.9651
2023-05-10T10:04:54.014Z,79.9100
2023-05-10T10:05:54.291Z,79.8521
2023-05-10T10:06:55.036Z,79.7970
2023-05-10T10:07:55.524Z,79.6940
2023-05-10T10:08:58.462Z,79.5946
2023-05-10T10:09:59.674Z,79.5715
2023-05-10T10:11:00.169Z,79.5470
2023-05-10T10:12:00.715Z,79.4998
2023-05-10T10:13:01.218Z,79.4227
2023-05-10T10:14:01.683Z,79.3400
2023-05-10T10:15:02.224Z,79.2568
2023-05-10T10:16:02.358Z,79.1676
2023-05-10T10:17:09.100Z,79.1035
2023-05-10T10:18:09.215Z,79.0266
2023-05-10T10:19:09.098Z,78.9373
2023-05-10T10:20:11.987Z,78.8641
2023-05-10T10:21:09.615Z,78.8046
2023-05-10T10:22:10.251Z,78.7625
2023-05-10T10:23:10.867Z,78.7240
2023-05-10T10:24:11.213Z,78.6842
2023-05-10T10:25:11.738Z,78.6400
2023-05-10T10:26:12.886Z,78.6070
2023-05-10T10:27:13.415Z,78.6125
2023-05-10T10:28:13.844Z,78.6100
2023-05-10T10:29:14.443Z,78.5828
2023-05-10T10:30:15.065Z,78.5384
2023-05-10T10:31:15.618Z,78.4895
2023-05-10T10:32:16.382Z,78.4520
2023-05-10T10:33:27.708Z,78.4073
2023-05-10T10:34:18.724Z,78.3906
2023-05-10T10:35:19.165Z,78.3293
2023-05-10T10:36:19.771Z,78.2638
2023-05-10T10:37:20.440Z,78.1990
2023-05-10T10:38:20.849Z,78.1252
2023-05-10T10:39:21.399Z,78.0294
2023-05-10T10:40:21.953Z,77.9436
2023-05-10T10:41:22.582Z,77.8800
2023-05-10T10:42:22.940Z,77.8071
2023-05-10T10:43:23.532Z,77.7015
2023-05-10T10:44:24.124Z,77.6173
2023-05-10T10:45:24.722Z,77.5922
2023-05-10T10:46:26.139Z,77.5613
2023-05-10T10:47:27.366Z,77.5125
2023-05-10T10:48:27.419Z,77.4350
2023-05-10T10:49:28.454Z,77.3430
2023-05-10T10:50:29.266Z,77.2436
2023-05-10T10:51:30.376Z,77.0777
2023-05-10T10:52:31.598Z,76.8365
2023-05-10T10:53:32.013Z,76.6142
2023-05-10T10:54:32.162Z,76.4929
2023-05-10T10:55:32.754Z,76.3932
2023-05-10T10:56:35.210Z,76.2911
2023-05-10T10:57:34.445Z,76.2149
2023-05-10T10:58:35.450Z,76.1598
2023-05-10T10:59:36.559Z,76.0912
2023-05-10T11:00:37.852Z,76.0144
2023-05-10T11:01:38.784Z,75.9370
2023-05-10T11:02:39.135Z,75.9121
2023-05-10T11:03:39.430Z,75.9334
2023-05-10T11:04:40.509Z,75.9563
2023-05-10T11:05:40.529Z,75.9864
2023-05-10T11:06:41.715Z,76.0038
2023-05-10T11:07:42.799Z,76.0342
2023-05-10T11:08:43.795Z,76.0668
2023-05-10T11:09:44.887Z,76.0507
2023-05-10T11:10:46.104Z,76.0824
2023-05-10T11:11:47.063Z,76.0265
2023-05-10T11:12:48.192Z,75.9843
2023-05-10T11:13:50.842Z,76.0550
2023-05-10T11:14:50.193Z,76.1099
2023-05-10T11:15:51.258Z,76.1229
2023-05-10T11:16:51.369Z,76.1162
2023-05-10T11:17:52.596Z,76.1260
2023-05-10T11:18:52.650Z,76.0801
2023-05-10T11:19:52.962Z,76.0437
2023-05-10T11:20:53.249Z,76.0653
2023-05-10T11:21:54.594Z,76.0787
2023-05-10T11:22:55.533Z,76.1164
2023-05-10T11:23:56.646Z,76.1493
2023-05-10T11:24:57.178Z,76.1746
2023-05-10T11:25:58.375Z,76.2007
2023-05-10T11:26:59.435Z,76.2059
2023-05-10T11:28:00.637Z,76.2038
2023-05-10T11:29:01.627Z,76.1836
2023-05-10T11:30:05.100Z,76.1733
2023-05-10T11:31:05.313Z,76.1601
2023-05-10T11:32:05.474Z,76.1441
2023-05-10T11:33:06.621Z,76.1154
2023-05-10T11:34:06.693Z,76.0658
2023-05-10T11:35:07.771Z,75.9888
2023-05-10T11:36:08.819Z,75.8968
2023-05-10T11:37:10.164Z,75.7908
2023-05-10T11:38:11.112Z,75.7052
2023-05-10T11:39:12.289Z,75.6425
2023-05-10T11:40:13.548Z,75.5862
2023-05-10T11:41:13.517Z,75.5426
2023-05-10T11:42:14.297Z,75.5220
2023-05-10T11:43:14.314Z,75.4936
2023-05-10T11:44:15.320Z,75.4629
2023-05-10T11:45:16.378Z,75.4379
2023-05-10T11:46:16.411Z,75.3843
2023-05-10T11:47:16.981Z,75.3103
2023-05-10T11:48:18.035Z,75.2759
2023-05-10T11:49:19.124Z,75.2426
2023-05-10T11:50:20.391Z,75.2042
2023-05-10T11:51:21.488Z,75.1576
2023-05-10T11:52:21.716Z,75.0948
2023-05-10T11:53:24.811Z,75.0368
2023-05-10T11:54:22.977Z,75.0326
2023-05-10T11:55:23.975Z,74.9976
2023-05-10T11:56:25.202Z,74.8821
2023-05-10T11:57:25.258Z,74.7887
2023-05-10T11:58:26.445Z,74.7757
2023-05-10T11:59:27.399Z,74.7901
2023-05-10T12:00:27.800Z,74.7748
2023-05-10T12:01:28.761Z,74.7737
2023-05-10T12:02:28.861Z,74.7805
2023-05-10T12:03:30.167Z,74.7740
2023-05-10T12:04:31.017Z,74.7300
2023-05-10T12:05:31.828Z,74.6279
2023-05-10T12:06:31.786Z,74.5433
2023-05-10T12:07:32.945Z,74.4419
2023-05-10T12:08:33.026Z,74.3206
2023-05-10T12:09:43.088Z,74.1652
2023-05-10T12:10:34.306Z,73.9725
2023-05-10T12:11:35.446Z,73.7696
2023-05-10T12:12:36.670Z,73.5473
2023-05-10T12:13:37.897Z,73.2253
2023-05-10T12:14:39.074Z,72.9459
2023-05-10T12:15:40.250Z,72.6986
2023-05-10T12:16:41.851Z,72.1181
2023-05-10T12:17:43.514Z,72.0080
2023-05-10T12:18:43.921Z,72.0520
2023-05-10T12:19:44.608Z,72.0453
2023-05-10T12:20:45.088Z,71.9466
2023-05-10T12:21:46.294Z,71.9480
2023-05-10T12:22:47.470Z,71.8284
2023-05-10T12:23:48.429Z,71.7656
2023-05-10T12:24:49.581Z,71.6372
2023-05-10T12:25:49.618Z,71.4245
2023-05-10T12:26:50.902Z,71.5081
2023-05-10T12:27:52.042Z,71.5540
2023-05-10T12:28:52.038Z,71.6148
2023-05-10T12:29:52.056Z,71.7013
2023-05-10T12:30:53.225Z,71.7637
2023-05-10T12:31:53.403Z,71.8886
2023-05-10T12:32:53.777Z,71.9483
2023-05-10T12:33:55.113Z,71.9649
2023-05-10T12:34:56.031Z,71.9551
2023-05-10T12:35:57.295Z,71.9179
2023-05-10T12:36:58.441Z,71.8556
2023-05-10T12:37:58.461Z,71.7979
2023-05-10T12:38:59.518Z,71.7542
2023-05-10T12:40:00.834Z,71.7189
2023-05-10T12:41:01.026Z,71.6970
2023-05-10T12:42:01.969Z,71.6936
2023-05-10T12:43:02.188Z,71.7083
2023-05-10T12:44:02.412Z,71.7561
2023-05-10T12:45:03.584Z,71.8172
2023-05-10T12:46:04.948Z,71.8937
2023-05-10T12:47:05.035Z,71.9934
2023-05-10T12:48:06.060Z,72.1072
2023-05-10T12:49:11.718Z,72.2255
2023-05-10T12:50:11.879Z,72.3801
2023-05-10T12:51:12.955Z,72.4969
2023-05-10T12:52:14.121Z,72.6298
2023-05-10T12:53:15.290Z,72.7532
2023-05-10T12:54:15.379Z,72.8737
2023-05-10T12:55:16.485Z,72.9727
2023-05-10T12:56:17.702Z,73.0701
2023-05-10T12:57:18.890Z,73.1508
2023-05-10T12:58:35.068Z,73.2194
2023-05-10T12:59:23.778Z,73.2940
2023-05-10T13:00:23.653Z,73.2742
2023-05-10T13:01:23.943Z,73.2579
2023-05-10T13:02:24.050Z,73.2416
2023-05-10T13:03:24.213Z,73.2330
2023-05-10T13:04:25.298Z,73.2419